createdAt,value
2023-04-26T07:27:47.450Z,49.6
2023-04-26T07:33:43.332Z,49.5
2023-04-26T07:39:34.785Z,49.5
2023-04-26T07:45:26.772Z,49.5
2023-04-26T07:51:20.228Z,49.4
2023-04-26T07:57:13.422Z,49.4
2023-04-26T08:03:17.955Z,49.4
2023-04-26T08:09:13.336Z,49.3
2023-04-26T08:15:07.731Z,49.3
2023-04-26T08:21:00.247Z,49.3
2023-04-26T08:26:53.497Z,49.3
2023-04-26T08:32:45.224Z,49.2
2023-04-26T08:38:37.855Z,49.2
2023-04-26T08:44:33.250Z,49.1
2023-04-26T08:50:08.969Z,49.1
2023-04-26T08:56:01.496Z,49.1
2023-04-26T09:01:53.601Z,49.1
2023-04-26T09:07:47.555Z,49
2023-04-26T09:13:42.483Z,49
2023-04-26T09:19:20.743Z,49
2023-04-26T09:25:11.808Z,48.9
2023-04-26T09:31:04.574Z,48.9
2023-04-26T09:36:57.599Z,48.9
2023-04-26T09:42:45.759Z,48.9
2023-04-26T09:48:39.873Z,48.8
2023-04-26T09:54:32.933Z,48.8
2023-04-26T10:00:37.521Z,48.8
2023-04-26T10:06:31.629Z,48.8
2023-04-26T10:12:23.784Z,48.7
2023-04-26T10:17:59.452Z,48.7
2023-04-26T10:23:35.683Z,48.7
2023-04-26T10:29:34.744Z,48.8
2023-04-26T10:35:26.967Z,48.8
2023-04-26T10:41:18.910Z,48.9
2023-04-26T10:46:56.816Z,49.1
2023-04-26T10:52:48.712Z,49.2
2023-04-26T10:58:40.533Z,49.4
2023-04-26T11:05:05.734Z,49.8
2023-04-26T11:10:44.277Z,49.9
2023-04-26T11:16:07.715Z,50.3
2023-04-26T11:21:29.326Z,50.6
2023-04-26T11:27:04.491Z,50.9
2023-04-26T11:32:56.505Z,51.1
2023-04-26T11:38:49.908Z,51.2
2023-04-26T11:44:40.164Z,51.3
2023-04-26T11:50:32.492Z,51.6
2023-04-26T11:56:24.107Z,51.6
2023-04-26T12:02:15.503Z,51.6
2023-04-26T12:08:11.037Z,51.6
2023-04-26T12:14:03.792Z,51.6
2023-04-26T12:20:05.952Z,51.6
2023-04-26T12:25:45.522Z,51.6
2023-04-26T12:31:38.458Z,51.6
2023-04-26T12:37:45.353Z,51.6
2023-04-26T12:43:37.233Z,51.5
2023-04-26T12:49:30.304Z,51.5
2023-04-26T12:55:07.139Z,51.4
2023-04-26T13:00:44.811Z,51.4
2023-04-26T13:06:24.950Z,51.4
2023-04-26T13:11:44.784Z,51.4
2023-04-26T13:17:30.749Z,51.4
2023-04-26T13:23:07.489Z,51.3
2023-04-26T13:29:01.520Z,51.3
2023-04-26T13:34:57.504Z,51.3
2023-04-26T13:40:51.117Z,51.2
2023-04-26T13:46:42.377Z,51.2
2023-04-26T13:52:34.936Z,51.2
2023-04-26T13:58:26.556Z,51.1
2023-04-26T14:04:19.803Z,51
2023-04-26T14:10:12.503Z,51
2023-04-26T14:16:20.247Z,50.9
2023-04-26T14:22:12.327Z,50.9
2023-04-26T14:28:04.398Z,50.9
2023-04-26T14:33:58.122Z,50.9
2023-04-26T14:39:49.446Z,50.8
2023-04-26T14:45:59.397Z,50.8
2023-04-26T14:51:53.295Z,50.8
2023-04-26T14:57:45.193Z,50.8
2023-04-26T15:03:41.667Z,50.7
2023-04-26T15:09:33.198Z,50.7
2023-04-26T15:15:09.513Z,50.6
2023-04-26T15:21:01.968Z,50.6
2023-04-26T15:26:38.186Z,50.6
2023-04-26T15:32:15.193Z,50.5
2023-04-26T15:38:07.621Z,50.5
2023-04-26T15:44:01.150Z,50.4
2023-04-26T15:49:53.044Z,50.4
2023-04-26T15:55:30.657Z,50.4
2023-04-26T16:01:23.793Z,50.4
2023-04-26T16:07:18.270Z,50.3
2023-04-26T16:13:38.575Z,50.3
2023-04-26T16:19:31.667Z,50.3
2023-04-26T16:25:23.505Z,50.3
2023-04-26T16:31:17.582Z,50.2
2023-04-26T16:37:10.181Z,50.2
2023-04-26T16:43:01.709Z,50.1
2023-04-26T16:48:56.647Z,50.1
2023-04-26T16:54:48.961Z,50.1
2023-04-26T17:00:09.703Z,50
2023-04-26T17:05:36.093Z,50
2023-04-26T17:11:28.111Z,49.9
2023-04-26T17:17:19.828Z,49.9
2023-04-26T17:23:11.664Z,49.9
2023-04-26T17:29:03.936Z,49.9
2023-04-26T17:34:55.655Z,49.8
2023-04-26T17:40:47.181Z,49.8
2023-04-26T17:46:39.252Z,49.8
2023-04-26T17:52:30.409Z,49.7
2023-04-26T17:58:09.671Z,49.7
2023-04-26T18:04:04.901Z,49.6
2023-04-26T18:09:57.577Z,49.6
2023-04-26T18:15:51.273Z,49.6
2023-04-26T18:21:44.820Z,49.5
2023-04-26T18:27:35.917Z,49.5
2023-04-26T18:33:29.326Z,49.4
2023-04-26T18:39:21.419Z,49.4
2023-04-26T18:45:13.306Z,49.4
2023-04-26T18:51:05.860Z,49.4
2023-04-26T18:57:01.234Z,49.3
2023-04-26T19:02:55.397Z,49.3
2023-04-26T19:08:35.036Z,49.3
2023-04-26T19:14:42.060Z,49.3
2023-04-26T19:20:35.829Z,49.2
2023-04-26T19:26:28.920Z,49.2
2023-04-26T19:32:22.412Z,49.1
2023-04-26T19:38:14.452Z,49.1
2023-04-26T19:43:55.402Z,49.1
2023-04-26T19:49:50.053Z,49.1
2023-04-26T19:55:28.433Z,49
2023-04-26T20:01:06.549Z,48.9
2023-04-26T20:07:01.670Z,48.9
2023-04-26T20:12:54.763Z,48.9
2023-04-26T20:18:48.100Z,48.9
2023-04-26T20:24:42.334Z,48.8
2023-04-26T20:30:19.521Z,48.8
2023-04-26T20:36:14.195Z,48.8
2023-04-26T20:42:07.367Z,48.8
2023-04-26T20:47:59.680Z,48.7
2023-04-26T20:53:51.867Z,48.6
2023-04-26T20:59:43.938Z,48.6
2023-04-26T21:05:38.580Z,48.6
2023-04-26T21:11:30.238Z,48.6
2023-04-26T21:17:22.291Z,48.5
2023-04-26T21:23:13.193Z,48.5
2023-04-26T21:29:04.210Z,48.5
2023-04-26T21:34:56.969Z,48.4
2023-04-26T21:40:32.797Z,48.4
2023-04-26T21:46:28.998Z,48.4
2023-04-26T21:52:21.212Z,48.3
2023-04-26T21:58:12.780Z,48.3
2023-04-26T22:04:05.610Z,48.3
2023-04-26T22:09:58.280Z,48.3
2023-04-26T22:15:48.783Z,48.2
2023-04-26T22:21:39.930Z,48.1
2023-04-26T22:27:32.332Z,48.1
2023-04-26T22:33:35.992Z,48.1
2023-04-26T22:39:34.721Z,48.1
2023-04-26T22:45:26.855Z,48.1
2023-04-26T22:51:17.640Z,48
2023-04-26T22:57:17.580Z,47.9
2023-04-26T23:02:54.784Z,47.9
2023-04-26T23:08:46.219Z,47.9
2023-04-26T23:14:39.702Z,47.9
2023-04-26T23:20:16.458Z,47.8
2023-04-26T23:26:08.314Z,47.8
2023-04-26T23:31:59.748Z,47.8
2023-04-26T23:37:56.805Z,47.8
2023-04-26T23:43:47.594Z,47.7
2023-04-26T23:49:23.825Z,47.7
2023-04-26T23:55:15.732Z,47.6
